Time;durP1;ratioP1;P1;durP2;ratioP2;P2;SDS_P1;SDS_P2;PMS_P1;PMS_P2;Temp;Humidity;BMP_temperature;BMP_pressure;BME280_temperature;BME280_humidity;BME280_pressure;Samples;Min_cycle;Max_cycle;Signal;HPM_P1;HPM_P2
2021/04/08 00:00:26;;;;;;;6.50;1.17;;;;;;;;;;5079703;27;20857;-59
2021/04/08 00:02:52;;;;;;;6.55;0.70;;;;;;;;;;5087317;27;20059;-59
2021/04/08 00:05:20;;;;;;;3.22;0.55;;;;;;;;;;5087337;27;20040;-60
2021/04/08 00:07:45;;;;;;;2.20;0.50;;;;;;;;;;5087497;27;20093;-61
2021/04/08 00:10:14;;;;;;;0.20;0.20;;;;;;;;;;5069617;27;20063;-61
2021/04/08 00:12:42;;;;;;;3.03;0.77;;;;;;;;;;5067163;27;20054;-61
2021/04/08 00:15:11;;;;;;;7.18;0.70;;;;;;;;;;5038467;27;20180;-59
2021/04/08 00:17:39;;;;;;;10.57;1.20;;;;;;;;;;5068499;27;20087;-62
2021/04/08 00:20:13;;;;;;;2.55;0.85;;;;;;;;;;5089056;27;20058;-59
2021/04/08 00:22:41;;;;;;;4.28;0.82;;;;;;;;;;5066623;27;20035;-61
2021/04/08 00:25:10;;;;;;;3.10;0.52;;;;;;;;;;5070496;27;20047;-61
2021/04/08 00:27:35;;;;;;;9.43;1.45;;;;;;;;;;5086095;27;20152;-61
2021/04/08 00:30:08;;;;;;;6.07;0.70;;;;;;;;;;5054574;28;20082;-60
2021/04/08 00:32:36;;;;;;;1.55;0.47;;;;;;;;;;5069392;27;20035;-61
2021/04/08 00:35:02;;;;;;;13.52;2.03;;;;;;;;;;5088117;27;20024;-60
2021/04/08 00:37:27;;;;;;;7.07;0.90;;;;;;;;;;5088292;27;20035;-62
2021/04/08 00:39:55;;;;;;;4.90;1.05;;;;;;;;;;5049734;27;20066;-60
2021/04/08 00:42:22;;;;;;;12.10;2.97;;;;;;;;;;5066735;27;20965;-61
2021/04/08 00:44:50;;;;;;;13.05;1.10;;;;;;;;;;5065497;27;20036;-60
2021/04/08 00:47:15;;;;;;;17.95;1.65;;;;;;;;;;5083874;27;20043;-61
2021/04/08 00:49:43;;;;;;;4.43;0.82;;;;;;;;;;5083956;27;21016;-60
2021/04/08 00:52:11;;;;;;;1.30;0.52;;;;;;;;;;5068160;27;20060;-60
2021/04/08 00:54:41;;;;;;;14.45;1.48;;;;;;;;;;5085734;27;20204;-62
2021/04/08 00:57:07;;;;;;;4.28;0.80;;;;;;;;;;5076833;28;20651;-61
2021/04/08 00:59:33;;;;;;;12.38;1.15;;;;;;;;;;5069391;27;20036;-61
2021/04/08 01:02:01;;;;;;;8.98;1.40;;;;;;;;;;5064469;27;20039;-59
2021/04/08 01:04:27;;;;;;;5.90;1.13;;;;;;;;;;5061067;27;20032;-59
2021/04/08 01:06:53;;;;;;;8.68;1.77;;;;;;;;;;5068382;27;20120;-62
2021/04/08 01:09:18;;;;;;;7.97;1.23;;;;;;;;;;5063908;27;20043;-63
2021/04/08 01:11:44;;;;;;;1.20;0.73;;;;;;;;;;5087525;27;20544;-59
2021/04/08 01:14:10;;;;;;;15.45;1.13;;;;;;;;;;5052665;27;20058;-60
2021/04/08 01:16:40;;;;;;;15.00;2.60;;;;;;;;;;5066691;27;20024;-60
2021/04/08 01:19:25;;;;;;;11.02;1.48;;;;;;;;;;5087877;27;20074;-60
2021/04/08 01:22:11;;;;;;;1.52;0.52;;;;;;;;;;5066450;27;20058;-60
2021/04/08 01:24:58;;;;;;;12.25;0.80;;;;;;;;;;5084345;27;20058;-61
2021/04/08 01:27:37;;;;;;;8.70;1.00;;;;;;;;;;5068828;27;20088;-59
2021/04/08 01:30:05;;;;;;;2.35;1.42;;;;;;;;;;5072831;27;20050;-59
2021/04/08 01:32:37;;;;;;;3.25;0.57;;;;;;;;;;5085758;27;20395;-59
2021/04/08 01:35:04;;;;;;;4.50;1.00;;;;;;;;;;5085149;27;20055;-61
2021/04/08 01:37:58;;;;;;;3.70;0.35;;;;;;;;;;5085551;27;20158;-61
2021/04/08 01:40:27;;;;;;;3.35;0.57;;;;;;;;;;5067581;27;20963;-58
2021/04/08 01:42:58;;;;;;;7.07;1.05;;;;;;;;;;5067553;28;20100;-61
2021/04/08 01:45:26;;;;;;;1.80;0.57;;;;;;;;;;5066157;27;20043;-60
2021/04/08 01:47:56;;;;;;;17.27;1.58;;;;;;;;;;5076958;27;20433;-60
2021/04/08 01:50:31;;;;;;;7.68;0.90;;;;;;;;;;5065851;27;20115;-59
2021/04/08 01:53:00;;;;;;;9.00;0.75;;;;;;;;;;5082294;27;20083;-60
2021/04/08 01:55:34;;;;;;;0.80;0.57;;;;;;;;;;5066670;28;20035;-59
2021/04/08 01:58:02;;;;;;;5.60;0.75;;;;;;;;;;5080853;27;20036;-60
2021/04/08 02:00:30;;;;;;;9.70;1.13;;;;;;;;;;5075228;27;20042;-61
2021/04/08 02:02:58;;;;;;;0.65;0.30;;;;;;;;;;5066020;27;20031;-59
2021/04/08 02:05:29;;;;;;;9.88;0.70;;;;;;;;;;5065692;28;20097;-60
2021/04/08 02:07:56;;;;;;;0.55;0.30;;;;;;;;;;5051405;27;20035;-59
2021/04/08 02:10:24;;;;;;;2.75;0.43;;;;;;;;;;5067390;27;20058;-60
2021/04/08 02:12:50;;;;;;;3.25;0.20;;;;;;;;;;5083915;27;20653;-59
2021/04/08 02:15:19;;;;;;;2.33;0.45;;;;;;;;;;5085927;27;20038;-60
2021/04/08 02:17:52;;;;;;;6.72;0.80;;;;;;;;;;5077388;27;20076;-60
2021/04/08 02:20:19;;;;;;;10.57;1.08;;;;;;;;;;5065444;28;20069;-60
2021/04/08 02:22:47;;;;;;;2.17;0.40;;;;;;;;;;5077648;27;20099;-60
2021/04/08 02:25:14;;;;;;;2.00;0.60;;;;;;;;;;5065966;28;20633;-59
2021/04/08 02:27:42;;;;;;;1.00;0.57;;;;;;;;;;5049406;27;20036;-59
2021/04/08 02:30:10;;;;;;;6.28;0.63;;;;;;;;;;5084061;27;20074;-60
2021/04/08 02:32:36;;;;;;;2.78;0.70;;;;;;;;;;5066201;28;20041;-60
2021/04/08 02:35:07;;;;;;;0.88;0.43;;;;;;;;;;5051276;28;20024;-60
2021/04/08 02:37:32;;;;;;;2.17;0.35;;;;;;;;;;5084865;27;20050;-59
2021/04/08 02:40:00;;;;;;;0.20;0.20;;;;;;;;;;5065603;27;20084;-59
2021/04/08 02:42:28;;;;;;;6.43;0.60;;;;;;;;;;5083536;27;20066;-59
2021/04/08 02:44:56;;;;;;;6.45;0.85;;;;;;;;;;5083223;28;20091;-61
2021/04/08 02:47:24;;;;;;;0.90;0.60;;;;;;;;;;5064979;27;20035;-59
2021/04/08 02:49:52;;;;;;;3.92;1.48;;;;;;;;;;5084096;28;20812;-59
2021/04/08 02:52:26;;;;;;;2.72;0.47;;;;;;;;;;5085251;28;20105;-59
2021/04/08 02:55:18;;;;;;;0.40;0.40;;;;;;;;;;5064877;28;20119;-59
2021/04/08 02:57:58;;;;;;;0.82;0.57;;;;;;;;;;5055836;28;20076;-60
2021/04/08 03:00:27;;;;;;;4.38;0.77;;;;;;;;;;5086072;28;20032;-60
2021/04/08 03:02:55;;;;;;;7.97;0.45;;;;;;;;;;5047796;28;20035;-60
2021/04/08 03:05:21;;;;;;;11.85;0.90;;;;;;;;;;5067675;28;20116;-59
2021/04/08 03:07:48;;;;;;;2.28;0.32;;;;;;;;;;5067910;28;20823;-60
2021/04/08 03:10:15;;;;;;;1.70;0.60;;;;;;;;;;5065652;28;20028;-59
2021/04/08 03:12:50;;;;;;;0.85;0.52;;;;;;;;;;5067563;28;20042;-59
2021/04/08 03:15:28;;;;;;;5.05;0.43;;;;;;;;;;5065623;28;21286;-60
2021/04/08 03:17:57;;;;;;;4.05;0.68;;;;;;;;;;5066497;28;20765;-59
2021/04/08 03:20:26;;;;;;;0.20;0.00;;;;;;;;;;5048278;28;20433;-58
2021/04/08 03:22:53;;;;;;;1.65;0.93;;;;;;;;;;5040691;28;20036;-59
2021/04/08 03:25:19;;;;;;;8.18;0.90;;;;;;;;;;5051114;28;20691;-57
2021/04/08 03:27:48;;;;;;;9.57;0.52;;;;;;;;;;5083945;28;20444;-62
2021/04/08 03:30:14;;;;;;;11.82;1.08;;;;;;;;;;5063235;28;20048;-59
2021/04/08 03:32:40;;;;;;;1.83;1.05;;;;;;;;;;5087882;27;20038;-60
2021/04/08 03:35:06;;;;;;;1.42;0.82;;;;;;;;;;5054980;27;20023;-59
2021/04/08 03:37:34;;;;;;;3.40;0.63;;;;;;;;;;5061842;27;20213;-59
2021/04/08 03:40:03;;;;;;;8.30;0.75;;;;;;;;;;5070379;27;21371;-60
2021/04/08 03:42:29;;;;;;;4.45;0.93;;;;;;;;;;5085885;27;20023;-58
2021/04/08 03:44:54;;;;;;;0.45;0.40;;;;;;;;;;5054018;27;20027;-59
2021/04/08 03:47:23;;;;;;;8.18;1.25;;;;;;;;;;5053176;27;20043;-60
2021/04/08 03:49:50;;;;;;;3.85;1.33;;;;;;;;;;5089268;27;20558;-60
2021/04/08 03:52:16;;;;;;;17.25;1.00;;;;;;;;;;5089729;27;20488;-60
2021/04/08 03:54:43;;;;;;;7.65;1.02;;;;;;;;;;5085262;27;21102;-59
2021/04/08 03:57:13;;;;;;;2.22;0.57;;;;;;;;;;5088752;27;20152;-59
2021/04/08 03:59:43;;;;;;;4.82;0.88;;;;;;;;;;5079417;27;20092;-62
2021/04/08 04:02:15;;;;;;;4.38;0.70;;;;;;;;;;5089998;27;20081;-59
2021/04/08 04:04:43;;;;;;;8.60;1.00;;;;;;;;;;5088992;27;20036;-59
2021/04/08 04:07:14;;;;;;;7.53;0.98;;;;;;;;;;5051543;27;20031;-59
2021/04/08 04:09:42;;;;;;;1.75;0.85;;;;;;;;;;5072620;27;20036;-61
2021/04/08 04:12:13;;;;;;;5.20;1.02;;;;;;;;;;5069622;27;20563;-61
2021/04/08 04:14:44;;;;;;;6.20;1.45;;;;;;;;;;5069995;27;20035;-60
2021/04/08 04:17:29;;;;;;;14.93;0.77;;;;;;;;;;5085933;27;20047;-65
2021/04/08 04:19:55;;;;;;;12.52;1.60;;;;;;;;;;5088911;27;20051;-60
2021/04/08 04:22:21;;;;;;;7.18;0.57;;;;;;;;;;5088692;27;20142;-60
2021/04/08 04:24:49;;;;;;;2.65;0.70;;;;;;;;;;5067601;27;20209;-59
2021/04/08 04:27:19;;;;;;;4.40;0.68;;;;;;;;;;5076879;28;20162;-60
2021/04/08 04:29:48;;;;;;;2.92;0.95;;;;;;;;;;5088746;27;20068;-59
2021/04/08 04:32:18;;;;;;;9.05;1.33;;;;;;;;;;5089838;27;20518;-60
2021/04/08 04:34:46;;;;;;;4.03;0.95;;;;;;;;;;5073859;27;20124;-60
2021/04/08 04:37:14;;;;;;;4.82;0.40;;;;;;;;;;5072931;28;20031;-60
2021/04/08 04:39:44;;;;;;;6.07;0.70;;;;;;;;;;5058323;27;20092;-60
2021/04/08 04:42:15;;;;;;;2.85;0.80;;;;;;;;;;5074844;27;20192;-60
2021/04/08 04:44:48;;;;;;;2.72;0.75;;;;;;;;;;5091297;27;20043;-59
2021/04/08 04:47:14;;;;;;;6.70;1.02;;;;;;;;;;5066303;27;20062;-59
2021/04/08 04:49:42;;;;;;;5.95;1.55;;;;;;;;;;5061506;27;20039;-60
2021/04/08 04:52:07;;;;;;;2.00;0.85;;;;;;;;;;5071356;27;20020;-59
2021/04/08 04:54:36;;;;;;;1.00;0.50;;;;;;;;;;5087127;27;20668;-59
2021/04/08 04:57:01;;;;;;;6.40;0.60;;;;;;;;;;5068184;28;20043;-61
2021/04/08 04:59:27;;;;;;;3.85;0.50;;;;;;;;;;5068504;27;20040;-59
2021/04/08 05:01:54;;;;;;;3.80;1.05;;;;;;;;;;5048624;27;20081;-59
2021/04/08 05:04:20;;;;;;;1.33;1.23;;;;;;;;;;5064071;27;20080;-59
2021/04/08 05:06:48;;;;;;;1.55;0.88;;;;;;;;;;5085407;27;20035;-60
2021/04/08 05:09:16;;;;;;;4.68;1.08;;;;;;;;;;5067305;27;20031;-60
2021/04/08 05:11:41;;;;;;;0.95;0.52;;;;;;;;;;5070721;27;20035;-60
2021/04/08 05:14:09;;;;;;;13.45;1.05;;;;;;;;;;5050761;27;20031;-59
2021/04/08 05:16:42;;;;;;;6.68;1.65;;;;;;;;;;5068189;27;20152;-58
2021/04/08 05:19:10;;;;;;;6.72;0.82;;;;;;;;;;5086219;27;20066;-60
2021/04/08 05:21:38;;;;;;;3.55;0.52;;;;;;;;;;5055527;28;20116;-59
2021/04/08 05:24:04;;;;;;;4.38;0.90;;;;;;;;;;5088322;27;20649;-60
2021/04/08 05:26:32;;;;;;;3.53;0.73;;;;;;;;;;5086031;27;20040;-58
2021/04/08 05:29:01;;;;;;;4.45;0.68;;;;;;;;;;5069647;28;20454;-59
2021/04/08 05:31:29;;;;;;;1.08;0.55;;;;;;;;;;5069431;28;21942;-59
2021/04/08 05:33:54;;;;;;;1.88;0.70;;;;;;;;;;5082962;27;20048;-59
2021/04/08 05:36:19;;;;;;;1.35;0.65;;;;;;;;;;5083229;27;20132;-59
2021/04/08 05:38:48;;;;;;;4.18;0.60;;;;;;;;;;5048213;28;20031;-59
2021/04/08 05:41:13;;;;;;;1.80;0.80;;;;;;;;;;5070492;27;20041;-59
2021/04/08 05:43:39;;;;;;;2.67;0.82;;;;;;;;;;5061235;27;20046;-60
2021/04/08 05:46:09;;;;;;;4.28;0.63;;;;;;;;;;5066045;28;20067;-64
2021/04/08 05:48:34;;;;;;;3.05;1.10;;;;;;;;;;5070258;28;20035;-60
2021/04/08 05:51:05;;;;;;;1.17;0.52;;;;;;;;;;5061947;27;20038;-60
2021/04/08 05:53:33;;;;;;;2.60;0.80;;;;;;;;;;5068305;28;20040;-59
2021/04/08 05:55:59;;;;;;;6.30;1.08;;;;;;;;;;5049736;27;20580;-61
2021/04/08 05:58:25;;;;;;;5.90;1.02;;;;;;;;;;5085093;27;20042;-59
2021/04/08 06:00:51;;;;;;;8.45;0.95;;;;;;;;;;5084721;27;20032;-60
2021/04/08 06:03:16;;;;;;;0.57;0.47;;;;;;;;;;5066778;27;20034;-61
2021/04/08 06:05:47;;;;;;;4.25;0.90;;;;;;;;;;5068067;27;20169;-59
2021/04/08 06:08:13;;;;;;;1.98;0.90;;;;;;;;;;5085449;27;20031;-59
2021/04/08 06:10:46;;;;;;;7.53;0.93;;;;;;;;;;5050884;27;20063;-59
2021/04/08 06:13:12;;;;;;;4.50;0.90;;;;;;;;;;5044380;27;20332;-60
2021/04/08 06:15:38;;;;;;;10.02;1.90;;;;;;;;;;5069790;27;20034;-58
2021/04/08 06:18:03;;;;;;;3.33;0.88;;;;;;;;;;5033996;28;20397;-59
2021/04/08 06:20:33;;;;;;;6.50;1.02;;;;;;;;;;5066814;27;20109;-59
2021/04/08 06:22:59;;;;;;;5.90;0.75;;;;;;;;;;5086751;27;20040;-59
2021/04/08 06:25:28;;;;;;;11.57;1.35;;;;;;;;;;5070740;28;20050;-60
2021/04/08 06:27:54;;;;;;;3.42;1.20;;;;;;;;;;5084918;27;20024;-61
2021/04/08 06:30:22;;;;;;;4.57;0.68;;;;;;;;;;5064596;28;20035;-60
2021/04/08 06:32:52;;;;;;;9.65;1.48;;;;;;;;;;5086293;27;20084;-60
2021/04/08 06:35:20;;;;;;;6.45;0.82;;;;;;;;;;5071058;28;20023;-60
2021/04/08 06:40:26;;;;;;;10.15;2.00;;;;;;;;;;5056697;28;20055;-59
2021/04/08 06:42:52;;;;;;;5.43;1.20;;;;;;;;;;5058332;28;20032;-60
2021/04/08 06:45:20;;;;;;;5.03;1.70;;;;;;;;;;5060070;28;20028;-59
2021/04/08 06:47:54;;;;;;;5.40;1.23;;;;;;;;;;5058154;28;20037;-59
2021/04/08 06:50:26;;;;;;;5.40;1.25;;;;;;;;;;5061637;28;20098;-59
2021/04/08 06:52:52;;;;;;;6.57;1.70;;;;;;;;;;5057869;28;20086;-58
2021/04/08 06:55:19;;;;;;;3.42;1.02;;;;;;;;;;5064952;28;20038;-58
2021/04/08 06:57:44;;;;;;;11.68;1.35;;;;;;;;;;5058087;28;20178;-59
2021/04/08 07:00:10;;;;;;;6.95;1.27;;;;;;;;;;5057653;28;20024;-57
2021/04/08 07:02:39;;;;;;;5.63;1.40;;;;;;;;;;5057130;28;20602;-61
2021/04/08 07:05:06;;;;;;;5.60;1.58;;;;;;;;;;5055294;28;20038;-59
2021/04/08 07:07:34;;;;;;;5.72;1.40;;;;;;;;;;5047352;28;20032;-60
2021/04/08 07:10:02;;;;;;;6.63;1.33;;;;;;;;;;5068241;28;20066;-59
2021/04/08 07:12:30;;;;;;;3.45;1.15;;;;;;;;;;5061442;28;20032;-59
2021/04/08 07:14:59;;;;;;;8.90;1.23;;;;;;;;;;5063506;28;20028;-59
2021/04/08 07:17:24;;;;;;;8.93;1.50;;;;;;;;;;5061939;28;20032;-59
2021/04/08 07:19:55;;;;;;;4.47;1.40;;;;;;;;;;5062988;28;20170;-58
2021/04/08 07:22:23;;;;;;;6.68;1.10;;;;;;;;;;5069483;28;20024;-61
2021/04/08 07:24:49;;;;;;;10.32;1.25;;;;;;;;;;5061762;28;20110;-59
2021/04/08 07:27:17;;;;;;;2.22;1.17;;;;;;;;;;5062747;28;20063;-58
2021/04/08 07:29:43;;;;;;;13.93;1.33;;;;;;;;;;5040283;28;21978;-59
2021/04/08 07:32:12;;;;;;;6.18;1.25;;;;;;;;;;5061133;28;20052;-59
2021/04/08 07:34:44;;;;;;;5.47;1.63;;;;;;;;;;5048705;28;20036;-60
2021/04/08 07:37:19;;;;;;;5.00;1.00;;;;;;;;;;5059181;28;20159;-60
2021/04/08 07:39:45;;;;;;;3.22;1.10;;;;;;;;;;5059937;28;20156;-59
2021/04/08 07:42:21;;;;;;;10.15;1.10;;;;;;;;;;5061891;28;20461;-59
2021/04/08 07:44:55;;;;;;;4.43;1.30;;;;;;;;;;5056913;28;20679;-59
2021/04/08 07:47:23;;;;;;;4.10;1.10;;;;;;;;;;5046329;28;20062;-60
2021/04/08 07:50:11;;;;;;;6.00;1.35;;;;;;;;;;5077239;27;20083;-58
2021/04/08 07:52:37;;;;;;;3.47;1.10;;;;;;;;;;5062398;28;20096;-60
2021/04/08 07:55:05;;;;;;;8.63;1.13;;;;;;;;;;5074626;28;20043;-60
2021/04/08 07:57:55;;;;;;;5.95;1.40;;;;;;;;;;5056988;28;20032;-59
2021/04/08 08:00:24;;;;;;;8.25;1.60;;;;;;;;;;5067438;28;21274;-61
2021/04/08 08:02:51;;;;;;;3.97;1.20;;;;;;;;;;5059277;28;20036;-60
2021/04/08 08:05:26;;;;;;;7.03;1.50;;;;;;;;;;5066484;28;20124;-60
2021/04/08 08:07:54;;;;;;;10.63;1.45;;;;;;;;;;5064484;28;20064;-59
2021/04/08 08:10:29;;;;;;;7.28;1.38;;;;;;;;;;5063510;28;20042;-59
2021/04/08 08:12:57;;;;;;;7.72;1.52;;;;;;;;;;5045193;28;21172;-59
2021/04/08 08:15:26;;;;;;;3.40;1.10;;;;;;;;;;5062956;28;20952;-60
2021/04/08 08:17:54;;;;;;;4.43;1.13;;;;;;;;;;5063771;28;20031;-60
2021/04/08 08:20:20;;;;;;;10.38;1.40;;;;;;;;;;5062536;28;20582;-60
2021/04/08 08:22:46;;;;;;;3.92;1.02;;;;;;;;;;5062114;28;20032;-61
2021/04/08 08:25:15;;;;;;;6.38;1.02;;;;;;;;;;5062746;28;20094;-59
2021/04/08 08:27:49;;;;;;;5.80;1.35;;;;;;;;;;5063179;28;20146;-60
2021/04/08 08:30:16;;;;;;;8.32;1.30;;;;;;;;;;5046939;28;20051;-60
2021/04/08 08:33:03;;;;;;;9.02;1.40;;;;;;;;;;5075939;27;20043;-60
2021/04/08 08:35:29;;;;;;;5.68;1.08;;;;;;;;;;5043519;28;20475;-60
2021/04/08 08:37:55;;;;;;;5.53;0.90;;;;;;;;;;5062560;28;20128;-59
2021/04/08 08:40:21;;;;;;;1.70;0.75;;;;;;;;;;5060591;28;20053;-60
2021/04/08 08:42:48;;;;;;;5.47;0.90;;;;;;;;;;5069148;28;20046;-61
2021/04/08 08:45:17;;;;;;;9.02;0.90;;;;;;;;;;5077732;27;20039;-60
2021/04/08 08:47:42;;;;;;;3.38;0.90;;;;;;;;;;5061270;28;20115;-59
2021/04/08 08:50:10;;;;;;;4.38;1.08;;;;;;;;;;5058018;28;20040;-59
2021/04/08 08:52:37;;;;;;;4.80;1.40;;;;;;;;;;5062193;28;20036;-61
2021/04/08 08:55:10;;;;;;;6.88;1.10;;;;;;;;;;5061905;28;20098;-59
2021/04/08 08:57:37;;;;;;;2.75;0.90;;;;;;;;;;5056423;28;20140;-61
2021/04/08 09:00:06;;;;;;;7.30;1.08;;;;;;;;;;5062015;28;20036;-61
2021/04/08 09:02:38;;;;;;;5.47;1.00;;;;;;;;;;5057867;28;20043;-59
2021/04/08 09:05:11;;;;;;;7.60;1.30;;;;;;;;;;5061267;28;20047;-60
2021/04/08 09:07:42;;;;;;;2.67;1.00;;;;;;;;;;5064918;28;22145;-59
2021/04/08 09:10:08;;;;;;;1.67;0.93;;;;;;;;;;5065762;28;20055;-60
2021/04/08 09:12:34;;;;;;;6.18;1.50;;;;;;;;;;5059696;28;20033;-60
2021/04/08 09:15:04;;;;;;;4.95;0.95;;;;;;;;;;5060726;28;20070;-63
2021/04/08 09:17:46;;;;;;;3.63;0.90;;;;;;;;;;5050192;28;20044;-59
2021/04/08 09:20:17;;;;;;;9.18;1.13;;;;;;;;;;5058736;28;20158;-60
2021/04/08 09:22:53;;;;;;;5.07;1.52;;;;;;;;;;5060484;28;20036;-59
2021/04/08 09:25:22;;;;;;;9.55;1.27;;;;;;;;;;5043516;28;20042;-61
2021/04/08 09:27:51;;;;;;;2.60;0.95;;;;;;;;;;5057296;28;20571;-60
2021/04/08 09:30:33;;;;;;;7.53;1.23;;;;;;;;;;5065973;28;20050;-58
2021/04/08 09:33:01;;;;;;;8.05;1.27;;;;;;;;;;5058947;28;20028;-60
2021/04/08 09:35:28;;;;;;;11.35;1.30;;;;;;;;;;5060425;28;20028;-60
2021/04/08 09:37:59;;;;;;;10.98;1.30;;;;;;;;;;5049065;28;20028;-61
2021/04/08 09:40:35;;;;;;;3.88;0.93;;;;;;;;;;5058640;28;20763;-62
2021/04/08 09:43:06;;;;;;;4.88;1.20;;;;;;;;;;5049212;28;20039;-62
2021/04/08 09:45:41;;;;;;;5.60;1.13;;;;;;;;;;5044408;28;20206;-59
2021/04/08 09:48:07;;;;;;;9.48;1.60;;;;;;;;;;5060818;28;20137;-61
2021/04/08 09:50:51;;;;;;;3.78;1.27;;;;;;;;;;5063884;28;20040;-60
2021/04/08 09:53:18;;;;;;;2.47;1.23;;;;;;;;;;5056758;28;20028;-59
2021/04/08 09:56:00;;;;;;;5.57;1.02;;;;;;;;;;5064631;28;20069;-60
2021/04/08 09:58:29;;;;;;;9.82;1.40;;;;;;;;;;5059221;28;20035;-62
2021/04/08 10:00:56;;;;;;;5.38;1.40;;;;;;;;;;5042450;28;20043;-60
2021/04/08 10:03:33;;;;;;;3.75;1.15;;;;;;;;;;5059008;28;20142;-60
2021/04/08 10:06:12;;;;;;;5.68;1.33;;;;;;;;;;5058530;28;20566;-60
2021/04/08 10:08:38;;;;;;;7.78;1.67;;;;;;;;;;5057939;28;20032;-61
2021/04/08 10:11:06;;;;;;;4.53;1.30;;;;;;;;;;5042908;28;20028;-61
2021/04/08 10:13:41;;;;;;;3.42;1.13;;;;;;;;;;5060086;28;20115;-60
2021/04/08 10:16:07;;;;;;;5.18;1.50;;;;;;;;;;5057232;28;21002;-61
2021/04/08 10:18:33;;;;;;;8.60;1.70;;;;;;;;;;5057659;28;20032;-60
2021/04/08 10:21:03;;;;;;;7.05;1.08;;;;;;;;;;5057358;28;20028;-60
2021/04/08 10:23:32;;;;;;;3.58;1.38;;;;;;;;;;5072367;28;20028;-60
2021/04/08 10:26:02;;;;;;;7.95;1.88;;;;;;;;;;5063832;28;20036;-61
2021/04/08 10:28:49;;;;;;;5.07;1.98;;;;;;;;;;5054324;28;20043;-61
2021/04/08 10:31:19;;;;;;;5.65;1.42;;;;;;;;;;5053608;28;20035;-60
2021/04/08 10:33:49;;;;;;;2.92;1.58;;;;;;;;;;5059702;28;20940;-62
2021/04/08 10:36:44;;;;;;;8.77;2.13;;;;;;;;;;5065408;28;20043;-61
2021/04/08 10:39:14;;;;;;;7.25;1.83;;;;;;;;;;5041104;28;20082;-61
2021/04/08 10:41:41;;;;;;;5.80;1.77;;;;;;;;;;5058153;28;20113;-60
2021/04/08 10:44:19;;;;;;;3.45;1.95;;;;;;;;;;5058613;28;20040;-61
2021/04/08 10:46:44;;;;;;;7.10;1.63;;;;;;;;;;5043172;28;20110;-61
2021/04/08 10:49:10;;;;;;;5.53;1.45;;;;;;;;;;5059361;28;20032;-61
2021/04/08 10:51:35;;;;;;;4.35;2.00;;;;;;;;;;5061207;28;20028;-61
2021/04/08 10:54:02;;;;;;;2.75;1.80;;;;;;;;;;5058730;28;20038;-61
2021/04/08 10:56:29;;;;;;;5.20;2.10;;;;;;;;;;5037261;28;20040;-60
2021/04/08 10:59:13;;;;;;;2.53;2.17;;;;;;;;;;5057889;28;20143;-60
2021/04/08 11:01:41;;;;;;;2.80;1.90;;;;;;;;;;5059939;28;20042;-60
2021/04/08 11:04:10;;;;;;;4.88;2.33;;;;;;;;;;5061003;28;20036;-62
2021/04/08 11:06:36;;;;;;;3.38;2.17;;;;;;;;;;5045589;28;20067;-60
2021/04/08 11:09:06;;;;;;;3.80;2.65;;;;;;;;;;5059221;28;20053;-59
2021/04/08 11:11:32;;;;;;;5.68;2.60;;;;;;;;;;5060354;28;20050;-59
2021/04/08 11:14:00;;;;;;;3.00;2.17;;;;;;;;;;5062509;28;20523;-60
2021/04/08 11:16:30;;;;;;;8.90;2.53;;;;;;;;;;5037711;28;20143;-61
2021/04/08 11:19:02;;;;;;;2.85;2.40;;;;;;;;;;5060374;28;20043;-60
2021/04/08 11:21:33;;;;;;;3.78;2.63;;;;;;;;;;5060964;28;20028;-60
2021/04/08 11:24:03;;;;;;;4.88;2.40;;;;;;;;;;5059371;28;20029;-61
2021/04/08 11:26:28;;;;;;;5.15;2.20;;;;;;;;;;5059983;28;20024;-60
2021/04/08 11:28:57;;;;;;;3.90;2.60;;;;;;;;;;5059320;28;20086;-61
2021/04/08 11:31:26;;;;;;;5.75;2.83;;;;;;;;;;5058365;28;20084;-59
2021/04/08 11:33:59;;;;;;;5.93;2.95;;;;;;;;;;5057430;28;20396;-61
2021/04/08 11:36:27;;;;;;;3.97;2.67;;;;;;;;;;5054322;28;20081;-59
2021/04/08 11:38:55;;;;;;;6.22;2.88;;;;;;;;;;5036550;28;20051;-61
2021/04/08 11:41:27;;;;;;;5.53;2.78;;;;;;;;;;5039054;28;20039;-60
2021/04/08 11:43:52;;;;;;;10.30;3.45;;;;;;;;;;5058181;28;20483;-63
2021/04/08 11:46:31;;;;;;;7.35;3.75;;;;;;;;;;5058923;28;20157;-60
2021/04/08 11:48:59;;;;;;;8.90;2.92;;;;;;;;;;5059940;28;20633;-61
2021/04/08 11:51:29;;;;;;;5.20;2.95;;;;;;;;;;5058321;28;20990;-60
2021/04/08 11:53:55;;;;;;;4.65;3.00;;;;;;;;;;5061750;28;20631;-59
2021/04/08 11:56:23;;;;;;;6.30;3.67;;;;;;;;;;5062376;28;20036;-60
2021/04/08 11:58:51;;;;;;;5.57;4.00;;;;;;;;;;5049996;28;20028;-59
2021/04/08 12:01:17;;;;;;;9.98;3.78;;;;;;;;;;5049696;28;20032;-59
2021/04/08 12:03:47;;;;;;;12.13;4.40;;;;;;;;;;5047754;28;20023;-59
2021/04/08 12:06:13;;;;;;;4.65;3.72;;;;;;;;;;5058412;28;20042;-60
2021/04/08 12:08:40;;;;;;;5.20;4.20;;;;;;;;;;5060301;28;20067;-59
2021/04/08 12:11:06;;;;;;;7.40;4.15;;;;;;;;;;5062761;28;20031;-58
2021/04/08 12:13:47;;;;;;;11.70;4.57;;;;;;;;;;5060586;28;20038;-59
2021/04/08 12:16:25;;;;;;;8.13;4.35;;;;;;;;;;5063202;28;20024;-60
2021/04/08 12:18:53;;;;;;;7.53;4.25;;;;;;;;;;5060487;28;20031;-62
2021/04/08 12:21:20;;;;;;;10.00;4.45;;;;;;;;;;5062950;28;20024;-59
2021/04/08 12:23:47;;;;;;;8.43;4.03;;;;;;;;;;5058613;28;20082;-59
2021/04/08 12:26:13;;;;;;;12.43;3.85;;;;;;;;;;5061958;28;20032;-60
2021/04/08 12:28:43;;;;;;;5.05;3.80;;;;;;;;;;5066250;28;20028;-61
2021/04/08 12:31:14;;;;;;;6.28;4.20;;;;;;;;;;5061457;28;20669;-61
2021/04/08 12:33:42;;;;;;;7.55;5.03;;;;;;;;;;5062872;28;20032;-62
2021/04/08 12:36:11;;;;;;;7.43;4.78;;;;;;;;;;5067145;28;20901;-60
2021/04/08 12:38:37;;;;;;;8.60;4.57;;;;;;;;;;5061933;28;20051;-61
2021/04/08 12:41:03;;;;;;;7.13;4.63;;;;;;;;;;5059977;28;20039;-60
2021/04/08 12:43:32;;;;;;;7.80;4.53;;;;;;;;;;5061337;28;20028;-59
2021/04/08 12:46:00;;;;;;;7.95;3.72;;;;;;;;;;5062618;28;20133;-59
2021/04/08 12:48:28;;;;;;;9.38;4.22;;;;;;;;;;5060711;28;20053;-60
2021/04/08 12:50:57;;;;;;;6.35;3.80;;;;;;;;;;5061502;28;20685;-61
2021/04/08 12:53:24;;;;;;;8.60;4.55;;;;;;;;;;5050080;28;20067;-60
2021/04/08 12:55:52;;;;;;;4.00;3.60;;;;;;;;;;5059261;28;20647;-62
2021/04/08 12:58:19;;;;;;;7.63;3.85;;;;;;;;;;5063065;28;20134;-58
2021/04/08 13:00:47;;;;;;;5.18;4.22;;;;;;;;;;5062376;28;21052;-59
2021/04/08 13:03:15;;;;;;;6.70;4.90;;;;;;;;;;5062003;28;20165;-60
2021/04/08 13:05:46;;;;;;;12.02;5.78;;;;;;;;;;5051227;28;20163;-59
2021/04/08 13:08:12;;;;;;;9.18;5.15;;;;;;;;;;5044504;28;20033;-59
2021/04/08 13:10:41;;;;;;;8.18;5.38;;;;;;;;;;5061406;28;20073;-59
2021/04/08 13:13:10;;;;;;;8.98;5.30;;;;;;;;;;5061609;28;20101;-59
2021/04/08 13:15:37;;;;;;;7.30;5.45;;;;;;;;;;5066747;28;20028;-59
2021/04/08 13:18:02;;;;;;;8.73;5.75;;;;;;;;;;5078034;27;20039;-60
2021/04/08 13:20:29;;;;;;;8.02;5.72;;;;;;;;;;5060871;28;20020;-61
2021/04/08 13:22:54;;;;;;;10.70;6.30;;;;;;;;;;5060902;28;20058;-59
2021/04/08 13:25:20;;;;;;;11.45;5.60;;;;;;;;;;5056836;28;20036;-61
2021/04/08 13:27:46;;;;;;;8.85;5.97;;;;;;;;;;5052244;28;20054;-61
2021/04/08 13:30:15;;;;;;;9.02;5.85;;;;;;;;;;5057739;28;20106;-61
2021/04/08 13:32:41;;;;;;;13.23;6.10;;;;;;;;;;5059121;28;20167;-60
2021/04/08 13:35:13;;;;;;;14.70;7.00;;;;;;;;;;5061181;28;20024;-62
2021/04/08 13:37:38;;;;;;;10.30;6.78;;;;;;;;;;5060817;28;20123;-59
2021/04/08 13:40:07;;;;;;;13.77;6.00;;;;;;;;;;5061745;28;20056;-59
2021/04/08 13:42:36;;;;;;;9.38;5.55;;;;;;;;;;5054995;28;20042;-60
2021/04/08 13:45:02;;;;;;;15.70;6.22;;;;;;;;;;5061630;28;20523;-59
2021/04/08 13:47:28;;;;;;;10.23;5.85;;;;;;;;;;5058995;28;20033;-60
2021/04/08 13:49:56;;;;;;;10.10;5.88;;;;;;;;;;5060472;28;20079;-60
2021/04/08 13:52:22;;;;;;;17.60;6.75;;;;;;;;;;5060934;28;20028;-60
2021/04/08 13:54:47;;;;;;;12.32;6.15;;;;;;;;;;5061647;28;20031;-60
2021/04/08 13:57:13;;;;;;;11.65;6.30;;;;;;;;;;5064656;28;20032;-60
2021/04/08 13:59:39;;;;;;;9.38;5.90;;;;;;;;;;5042537;28;20032;-62
2021/04/08 14:02:05;;;;;;;12.48;5.70;;;;;;;;;;5060516;28;20109;-59
2021/04/08 14:04:33;;;;;;;9.65;5.70;;;;;;;;;;5060091;28;20705;-60
2021/04/08 14:07:01;;;;;;;13.93;5.88;;;;;;;;;;5060935;28;20029;-61
2021/04/08 14:09:26;;;;;;;11.15;5.60;;;;;;;;;;5030502;28;20483;-60
2021/04/08 14:11:54;;;;;;;6.13;5.13;;;;;;;;;;5047165;28;20035;-60
2021/04/08 14:14:23;;;;;;;7.88;4.93;;;;;;;;;;5061872;28;20062;-60
2021/04/08 14:16:48;;;;;;;8.82;5.18;;;;;;;;;;5060181;28;20034;-60
2021/04/08 14:19:22;;;;;;;3.28;2.47;;;;;;;;;;5061474;28;20036;-61
2021/04/08 14:21:48;;;;;;;3.50;2.67;;;;;;;;;;5059439;28;20028;-60
2021/04/08 14:24:16;;;;;;;7.18;2.97;;;;;;;;;;5059398;28;20066;-60
2021/04/08 14:26:44;;;;;;;6.70;2.58;;;;;;;;;;5047878;28;20037;-61
2021/04/08 14:29:12;;;;;;;8.77;3.17;;;;;;;;;;5072359;28;20028;-58
2021/04/08 14:31:39;;;;;;;3.30;2.55;;;;;;;;;;5047031;28;20039;-59
2021/04/08 14:34:07;;;;;;;4.40;3.28;;;;;;;;;;5058945;28;20105;-59
2021/04/08 14:36:35;;;;;;;5.18;2.80;;;;;;;;;;5059286;28;20589;-62
2021/04/08 14:39:03;;;;;;;4.50;2.83;;;;;;;;;;5055644;28;20095;-58
2021/04/08 14:41:29;;;;;;;4.50;2.28;;;;;;;;;;5064124;28;20040;-59
2021/04/08 14:43:54;;;;;;;6.10;2.80;;;;;;;;;;5048547;28;20043;-59
2021/04/08 14:46:22;;;;;;;10.80;2.65;;;;;;;;;;5052634;28;20103;-59
2021/04/08 14:48:48;;;;;;;6.75;2.47;;;;;;;;;;5058182;28;20032;-60
2021/04/08 14:51:13;;;;;;;5.25;2.28;;;;;;;;;;5051200;28;20861;-61
2021/04/08 14:53:39;;;;;;;9.30;3.00;;;;;;;;;;5058860;28;20067;-59